createdAt,value
2023-04-24T00:01:59.323Z,95734.56
2023-04-24T00:04:28.992Z,95734.84
2023-04-24T00:06:58.343Z,95729.44
2023-04-24T00:09:27.033Z,95726.59
2023-04-24T00:11:55.873Z,95722.41
2023-04-24T00:14:24.018Z,95722.31
2023-04-24T00:16:52.768Z,95717.66
2023-04-24T00:19:22.429Z,95719.56
2023-04-24T00:21:52.551Z,95724.69
2023-04-24T00:24:20.684Z,95728.94
2023-04-24T00:26:48.979Z,95727.41
2023-04-24T00:29:17.280Z,95712.91
2023-04-24T00:31:45.503Z,95724.50
2023-04-24T00:34:13.760Z,95722.94
2023-04-24T00:36:42.253Z,95714.34
2023-04-24T00:39:11.629Z,95714.50
2023-04-24T00:41:39.863Z,95707.56
2023-04-24T00:44:08.388Z,95712.38
2023-04-24T00:46:38.225Z,95699.72
2023-04-24T00:49:07.120Z,95706.78
2023-04-24T00:51:35.543Z,95704.34
2023-04-24T00:54:03.753Z,95702.69
2023-04-24T00:56:33.356Z,95701.56
2023-04-24T00:59:02.026Z,95707.28
2023-04-24T01:01:31.399Z,95703.06
2023-04-24T01:04:00.513Z,95708.69
2023-04-24T01:06:32.265Z,95704.78
2023-04-24T01:09:01.420Z,95701.25
2023-04-24T01:11:33.069Z,95699.47
2023-04-24T01:14:02.248Z,95697.66
2023-04-24T01:16:30.419Z,95694.09
2023-04-24T01:18:59.043Z,95700.59
2023-04-24T01:21:29.824Z,95700.59
2023-04-24T01:24:00.446Z,95703.19
2023-04-24T01:26:28.834Z,95703.56
2023-04-24T01:28:57.794Z,95709.22
2023-04-24T01:31:26.443Z,95713.97
2023-04-24T01:33:54.927Z,95706.81
2023-04-24T01:36:26.557Z,95704.84
2023-04-24T01:38:56.045Z,95702.72
2023-04-24T01:41:25.947Z,95699.47
2023-04-24T01:43:54.522Z,95696.06
2023-04-24T01:46:22.751Z,95689.53
2023-04-24T01:48:51.300Z,95686.97
2023-04-24T01:51:21.465Z,95687.91
2023-04-24T01:53:49.990Z,95695.56
2023-04-24T01:56:18.201Z,95686.94
2023-04-24T01:58:47.973Z,95687.75
2023-04-24T02:01:19.970Z,95681.56
2023-04-24T02:03:49.859Z,95675.22
2023-04-24T02:06:18.116Z,95676.03
2023-04-24T02:08:46.385Z,95670.81
2023-04-24T02:11:14.601Z,95666.91
2023-04-24T02:13:42.714Z,95666.59
2023-04-24T02:16:12.531Z,95670.66
2023-04-24T02:18:40.857Z,95672.28
2023-04-24T02:21:09.074Z,95675.19
2023-04-24T02:23:37.268Z,95671.81
2023-04-24T02:26:07.056Z,95673.25
2023-04-24T02:28:35.411Z,95664.16
2023-04-24T02:31:03.431Z,95660.75
2023-04-24T02:33:33.067Z,95663.84
2023-04-24T02:36:01.666Z,95661.06
2023-04-24T02:38:29.812Z,95666.09
2023-04-24T02:40:58.080Z,95667.88
2023-04-24T02:43:28.100Z,95668.72
2023-04-24T02:45:56.400Z,95679.63
2023-04-24T02:48:24.743Z,95677.03
2023-04-24T02:50:54.495Z,95667.38
2023-04-24T02:53:22.769Z,95666.41
2023-04-24T02:55:50.915Z,95674.72
2023-04-24T02:58:21.010Z,95669.50
2023-04-24T03:00:49.346Z,95667.09
2023-04-24T03:03:17.866Z,95664.47
2023-04-24T03:05:46.855Z,95675.22
2023-04-24T03:08:18.000Z,95676.03
2023-04-24T03:10:48.186Z,95672.59
2023-04-24T03:13:17.913Z,95675.88
2023-04-24T03:15:47.592Z,95674.72
2023-04-24T03:18:15.930Z,95672.78
2023-04-24T03:20:47.470Z,95676.69
2023-04-24T03:23:17.552Z,95677.50
2023-04-24T03:25:46.397Z,95677.81
2023-04-24T03:28:15.003Z,95678.97
2023-04-24T03:30:51.107Z,95680.13
2023-04-24T03:33:20.313Z,95680.91
2023-04-24T03:35:58.213Z,95688.25
2023-04-24T03:38:28.436Z,95691.00
2023-04-24T03:41:03.084Z,95689.84
2023-04-24T03:43:38.048Z,95693.94
2023-04-24T03:46:08.202Z,95696.38
2023-04-24T03:48:40.255Z,95692.28
2023-04-24T03:51:10.868Z,95690.19
2023-04-24T03:53:42.912Z,95687.38
2023-04-24T03:56:13.165Z,95682.25
2023-04-24T03:58:42.547Z,95680.41
2023-04-24T04:01:12.729Z,95686.13
2023-04-24T04:03:56.727Z,95684.41
2023-04-24T04:06:28.107Z,95680.53
2023-04-24T04:08:58.999Z,95687.84
2023-04-24T04:11:27.649Z,95688.50
2023-04-24T04:13:55.810Z,95685.09
2023-04-24T04:16:24.353Z,95689.13
2023-04-24T04:18:58.357Z,95680.78
2023-04-24T04:21:28.234Z,95687.16
2023-04-24T04:24:09.659Z,95687.78
2023-04-24T04:26:48.289Z,95689.09
2023-04-24T04:29:27.422Z,95691.56
2023-04-24T04:31:56.379Z,95696.16
2023-04-24T04:34:25.528Z,95692.44
2023-04-24T04:36:53.876Z,95693.09
2023-04-24T04:39:37.762Z,95698.47
2023-04-24T04:42:09.171Z,95702.41
2023-04-24T04:44:42.096Z,95702.56
2023-04-24T04:47:14.590Z,95703.22
2023-04-24T04:49:44.505Z,95707.78
2023-04-24T04:52:21.068Z,95713.31
2023-04-24T04:54:55.780Z,95710.06
2023-04-24T04:57:29.561Z,95708.44
2023-04-24T04:59:58.047Z,95711.34
2023-04-24T05:02:39.253Z,95715.41
2023-04-24T05:05:09.946Z,95720.00
2023-04-24T05:07:38.403Z,95716.56
2023-04-24T05:10:09.864Z,95716.38
2023-04-24T05:12:38.140Z,95719.97
2023-04-24T05:15:07.229Z,95728.59
2023-04-24T05:17:35.872Z,95728.28
2023-04-24T05:20:06.476Z,95724.03
2023-04-24T05:22:35.528Z,95728.28
2023-04-24T05:25:04.800Z,95728.44
2023-04-24T05:27:46.885Z,95735.91
2023-04-24T05:30:17.536Z,95733.81
2023-04-24T05:32:45.796Z,95736.75
2023-04-24T05:35:15.033Z,95739.84
2023-04-24T05:37:43.223Z,95741.13
2023-04-24T05:40:13.116Z,95736.06
2023-04-24T05:42:41.484Z,95742.91
2023-04-24T05:45:17.385Z,95742.06
2023-04-24T05:47:46.142Z,95743.53
2023-04-24T05:50:14.774Z,95749.88
2023-04-24T05:52:43.096Z,95746.75
2023-04-24T05:55:24.331Z,95743.97
2023-04-24T05:57:53.331Z,95735.63
2023-04-24T06:00:23.815Z,95751.91
2023-04-24T06:03:00.692Z,95751.91
2023-04-24T06:05:29.550Z,95742.13
2023-04-24T06:07:57.853Z,95748.09
2023-04-24T06:10:29.536Z,95740.22
2023-04-24T06:13:01.379Z,95740.09
2023-04-24T06:15:33.099Z,95748.91
2023-04-24T06:18:13.799Z,95736.94
2023-04-24T06:20:43.579Z,95739.38
2023-04-24T06:23:11.846Z,95734.84
2023-04-24T06:25:40.792Z,95735.31
2023-04-24T06:28:08.941Z,95733.75
2023-04-24T06:30:38.821Z,95730.25
2023-04-24T06:33:19.417Z,95735.81
2023-04-24T06:35:49.085Z,95741.78
2023-04-24T06:38:17.618Z,95746.63
2023-04-24T06:40:45.995Z,95749.19
2023-04-24T06:43:15.973Z,95749.03
2023-04-24T06:45:46.377Z,95746.56
2023-04-24T06:48:14.690Z,95750.31
2023-04-24T06:50:42.945Z,95759.47
2023-04-24T06:53:13.881Z,95761.78
2023-04-24T06:55:43.011Z,95760.66
2023-04-24T06:58:11.864Z,95758.03
2023-04-24T07:00:40.229Z,95749.16
2023-04-24T07:03:10.155Z,95758.56
2023-04-24T07:05:39.326Z,95755.09
2023-04-24T07:08:07.900Z,95756.84
2023-04-24T07:10:36.820Z,95756.22
2023-04-24T07:13:05.221Z,95761.91
2023-04-24T07:15:33.759Z,95763.47
2023-04-24T07:18:04.864Z,95762.56
2023-04-24T07:20:35.772Z,95761.03
2023-04-24T07:23:04.646Z,95767.00
2023-04-24T07:25:32.993Z,95774.56
2023-04-24T07:28:01.486Z,95767.06
2023-04-24T07:30:30.452Z,95763.47
2023-04-24T07:32:59.987Z,95765.72
2023-04-24T07:35:28.351Z,95769.91
2023-04-24T07:37:58.494Z,95771.28
2023-04-24T07:40:26.818Z,95770.88
2023-04-24T07:42:54.864Z,95765.81
2023-04-24T07:45:24.175Z,95768.94
2023-04-24T07:47:53.104Z,95773.13
2023-04-24T07:50:22.092Z,95769.31
2023-04-24T07:52:50.510Z,95765.75
2023-04-24T07:55:22.844Z,95774.13
2023-04-24T07:57:53.314Z,95776.94
2023-04-24T08:00:22.045Z,95776.50
2023-04-24T08:02:50.670Z,95776.91
2023-04-24T08:05:19.316Z,95781.78
2023-04-24T08:07:49.770Z,95770.97
2023-04-24T08:10:18.196Z,95778.13
2023-04-24T08:12:48.078Z,95778.88
2023-04-24T08:15:16.951Z,95782.38
2023-04-24T08:17:45.350Z,95779.56
2023-04-24T08:20:14.797Z,95787.97
2023-04-24T08:22:43.670Z,95790.06
2023-04-24T08:25:12.921Z,95786.59
2023-04-24T08:27:41.430Z,95787.66
2023-04-24T08:30:11.941Z,95796.78
2023-04-24T08:32:40.208Z,95795.31
2023-04-24T08:35:10.776Z,95791.84
2023-04-24T08:37:39.176Z,95786.34
2023-04-24T08:40:14.157Z,95787.25
2023-04-24T08:42:44.374Z,95789.78
2023-04-24T08:45:15.604Z,95786.13
2023-04-24T08:47:45.542Z,95780.13
2023-04-24T08:50:13.914Z,95778.34
2023-04-24T08:52:44.149Z,95778.97
2023-04-24T08:55:12.238Z,95786.09
2023-04-24T08:57:42.307Z,95785.75
2023-04-24T09:00:12.338Z,95797.06
2023-04-24T09:02:45.720Z,95787.28
2023-04-24T09:05:15.516Z,95792.63
2023-04-24T09:07:47.115Z,95778.81
2023-04-24T09:10:16.196Z,95780.59
2023-04-24T09:12:44.519Z,95781.78
2023-04-24T09:15:13.775Z,95788.81
2023-04-24T09:17:43.823Z,95774.41
2023-04-24T09:20:12.869Z,95776.00
2023-04-24T09:22:41.855Z,95777.50
2023-04-24T09:25:13.559Z,95787.63
2023-04-24T09:27:47.100Z,95776.06
2023-04-24T09:30:16.549Z,95775.88
2023-04-24T09:32:46.147Z,95784.72
2023-04-24T09:35:16.116Z,95782.50
2023-04-24T09:37:45.939Z,95775.91
2023-04-24T09:40:16.853Z,95780.03
2023-04-24T09:42:49.048Z,95772.00
2023-04-24T09:45:17.354Z,95772.31
2023-04-24T09:47:46.926Z,95770.22
2023-04-24T09:50:17.161Z,95774.59
2023-04-24T09:52:48.533Z,95772.50
2023-04-24T09:55:20.037Z,95768.09
2023-04-24T09:57:55.990Z,95776.06
2023-04-24T10:00:26.347Z,95761.47
2023-04-24T10:03:01.771Z,95766.31
2023-04-24T10:05:31.293Z,95757.50
2023-04-24T10:08:02.825Z,95760.94
2023-04-24T10:10:31.348Z,95764.75
2023-04-24T10:13:00.215Z,95757.50
2023-04-24T10:15:29.292Z,95764.59
2023-04-24T10:18:01.828Z,95760.81
2023-04-24T10:20:32.402Z,95766.38
2023-04-24T10:23:02.542Z,95763.09
2023-04-24T10:25:32.886Z,95765.25
2023-04-24T10:28:02.210Z,95765.63
2023-04-24T10:30:35.964Z,95772.31
2023-04-24T10:33:07.300Z,95776.03
2023-04-24T10:35:39.870Z,95776.56
2023-04-24T10:38:11.314Z,95780.97
2023-04-24T10:40:39.879Z,95780.53
2023-04-24T10:43:12.140Z,95781.50
2023-04-24T10:45:41.064Z,95788.75
2023-04-24T10:48:15.133Z,95790.66
2023-04-24T10:50:48.864Z,95789.66
2023-04-24T10:53:19.698Z,95800.34
2023-04-24T10:55:50.431Z,95799.03
2023-04-24T10:58:24.348Z,95788.59
2023-04-24T11:00:59.416Z,95794.22
2023-04-24T11:03:31.028Z,95799.00
2023-04-24T11:06:01.978Z,95799.38
2023-04-24T11:08:32.722Z,95788.00
2023-04-24T11:11:06.461Z,95793.97
2023-04-24T11:14:10.799Z,95788.06
2023-04-24T11:16:46.753Z,95785.88
2023-04-24T11:19:25.894Z,95790.88
2023-04-24T11:22:00.813Z,95797.16
2023-04-24T11:24:34.406Z,95796.00
2023-04-24T11:27:14.971Z,95787.47
2023-04-24T11:29:45.545Z,95786.53
2023-04-24T11:32:21.324Z,95784.47
2023-04-24T11:34:53.214Z,95784.31
2023-04-24T11:37:21.697Z,95785.84
2023-04-24T11:39:54.161Z,95781.06
2023-04-24T11:42:24.080Z,95784.00
2023-04-24T11:44:55.021Z,95792.81
2023-04-24T11:47:30.227Z,95795.22
2023-04-24T11:50:01.655Z,95799.59
2023-04-24T11:52:31.208Z,95802.38
2023-04-24T11:55:00.374Z,95795.06
2023-04-24T11:57:34.655Z,95791.56
2023-04-24T12:00:04.586Z,95794.16
2023-04-24T12:02:41.041Z,95791.81
2023-04-24T12:05:13.262Z,95788.50
2023-04-24T12:07:44.807Z,95775.69
2023-04-24T12:10:13.673Z,95776.38
2023-04-24T12:12:41.783Z,95782.19
2023-04-24T12:15:11.177Z,95769.91
2023-04-24T12:17:44.398Z,95763.94
2023-04-24T12:20:15.948Z,95765.75
2023-04-24T12:22:48.537Z,95750.22
2023-04-24T12:25:19.026Z,95751.97
2023-04-24T12:27:48.264Z,95749.66
2023-04-24T12:30:18.416Z,95749.59
2023-04-24T12:32:48.954Z,95743.72
2023-04-24T12:35:23.527Z,95752.13
2023-04-24T12:37:51.948Z,95748.75
2023-04-24T12:40:22.168Z,95751.72
2023-04-24T12:42:51.588Z,95747.94
2023-04-24T12:45:21.079Z,95737.81
2023-04-24T12:47:50.949Z,95730.34
2023-04-24T12:50:19.307Z,95738.72
2023-04-24T12:52:49.003Z,95733.19
2023-04-24T12:55:17.313Z,95729.03
2023-04-24T12:57:45.685Z,95737.03
2023-04-24T13:00:15.050Z,95737.81
2023-04-24T13:02:43.480Z,95736.59
2023-04-24T13:05:12.795Z,95737.84
2023-04-24T13:07:41.143Z,95722.41
2023-04-24T13:10:12.264Z,95713.31
2023-04-24T13:12:41.294Z,95707.34
2023-04-24T13:15:10.259Z,95708.47
2023-04-24T13:17:39.016Z,95708.53
2023-04-24T13:20:08.262Z,95712.34
2023-04-24T13:22:36.449Z,95712.16
2023-04-24T13:25:07.315Z,95698.84
2023-04-24T13:27:37.070Z,95713.00
2023-04-24T13:30:05.969Z,95707.72
2023-04-24T13:32:36.443Z,95712.66
2023-04-24T13:35:05.590Z,95710.63
2023-04-24T13:37:34.356Z,95727.31
2023-04-24T13:40:02.914Z,95726.13
2023-04-24T13:42:31.199Z,95743.75
2023-04-24T13:45:06.079Z,95744.38
2023-04-24T13:47:42.972Z,95761.59
2023-04-24T13:51:25.747Z,95758.88
2023-04-24T13:54:19.831Z,95739.81
2023-04-24T13:56:48.484Z,95734.13
2023-04-24T13:59:16.742Z,95728.78
2023-04-24T14:01:47.159Z,95739.69
2023-04-24T14:04:15.701Z,95724.34
2023-04-24T14:06:44.070Z,95717.50
2023-04-24T14:09:12.446Z,95718.94
2023-04-24T14:11:40.648Z,95723.81
2023-04-24T14:14:09.052Z,95710.75
2023-04-24T14:16:37.402Z,95719.56
2023-04-24T14:19:07.382Z,95725.91
2023-04-24T14:21:35.815Z,95728.19
2023-04-24T14:24:04.875Z,95734.59
2023-04-24T14:26:33.248Z,95731.16
2023-04-24T14:29:11.471Z,95728.69
2023-04-24T14:31:43.569Z,95724.50
2023-04-24T14:34:16.220Z,95724.31
2023-04-24T14:36:44.663Z,95722.66
2023-04-24T14:39:13.342Z,95718.69
2023-04-24T14:41:41.413Z,95716.78
2023-04-24T14:44:09.583Z,95714.16
2023-04-24T14:46:38.401Z,95705.44
2023-04-24T14:49:06.718Z,95706.03
2023-04-24T14:51:36.172Z,95708.41
2023-04-24T14:54:04.688Z,95706.16
2023-04-24T14:56:33.687Z,95705.63
2023-04-24T14:59:02.002Z,95705.34
2023-04-24T15:01:30.426Z,95713.00
2023-04-24T15:03:58.652Z,95718.69
2023-04-24T15:06:26.852Z,95720.34
2023-04-24T15:08:56.883Z,95718.31
2023-04-24T15:11:25.082Z,95724.28
2023-04-24T15:13:53.556Z,95725.06
2023-04-24T15:16:21.915Z,95735.69
2023-04-24T15:18:50.011Z,95734.78
2023-04-24T15:21:18.310Z,95734.34
2023-04-24T15:23:46.699Z,95743.00
2023-04-24T15:26:16.769Z,95741.44
2023-04-24T15:28:45.261Z,95738.19
2023-04-24T15:31:13.653Z,95743.16
2023-04-24T15:33:41.835Z,95737.84
2023-04-24T15:36:10.439Z,95730.81
2023-04-24T15:38:39.173Z,95728.25
2023-04-24T15:41:07.629Z,95729.16
2023-04-24T15:43:40.152Z,95731.38
2023-04-24T15:46:09.704Z,95731.38
2023-04-24T15:48:39.985Z,95731.75
2023-04-24T15:51:08.534Z,95730.06
2023-04-24T15:53:36.709Z,95741.78
2023-04-24T15:56:05.564Z,95745.19
2023-04-24T15:58:33.886Z,95742.59
2023-04-24T16:01:03.897Z,95750.00
2023-04-24T16:03:33.311Z,95742.44
2023-04-24T16:06:02.345Z,95737.47
2023-04-24T16:08:30.459Z,95745.06
2023-04-24T16:10:58.962Z,95749.59
2023-04-24T16:13:29.157Z,95748.75
2023-04-24T16:15:57.511Z,95753.56
2023-04-24T16:18:27.185Z,95758.84
2023-04-24T16:20:55.332Z,95760.03
2023-04-24T16:23:23.853Z,95764.84
2023-04-24T16:25:52.200Z,95764.47
2023-04-24T16:28:20.435Z,95762.47
2023-04-24T16:30:48.581Z,95764.06
2023-04-24T16:33:16.710Z,95772.41
2023-04-24T16:35:46.815Z,95770.78
2023-04-24T16:38:15.146Z,95769.72
2023-04-24T16:40:43.461Z,95777.09
2023-04-24T16:43:11.517Z,95780.03
2023-04-24T16:45:39.780Z,95785.34
2023-04-24T16:48:11.181Z,95787.38
2023-04-24T16:50:39.899Z,95786.47
2023-04-24T16:53:09.429Z,95777.59
2023-04-24T16:55:39.116Z,95783.94
2023-04-24T16:58:11.294Z,95789.78
2023-04-24T17:00:39.630Z,95791.09
2023-04-24T17:03:09.785Z,95793.50
2023-04-24T17:05:39.480Z,95797.44
2023-04-24T17:08:09.498Z,95789.44
2023-04-24T17:10:37.797Z,95801.81
2023-04-24T17:13:05.844Z,95801.22
2023-04-24T17:15:34.456Z,95807.47
2023-04-24T17:18:03.080Z,95798.69
2023-04-24T17:20:31.745Z,95815.50
2023-04-24T17:22:59.790Z,95816.47
2023-04-24T17:25:29.859Z,95820.72
2023-04-24T17:27:58.040Z,95814.69
2023-04-24T17:30:26.490Z,95823.81
2023-04-24T17:32:54.829Z,95824.00
2023-04-24T17:35:23.091Z,95822.69
2023-04-24T17:37:51.311Z,95828.41
2023-04-24T17:40:19.469Z,95832.16
2023-04-24T17:42:49.230Z,95838.06
2023-04-24T17:45:17.483Z,95830.72
2023-04-24T17:47:45.670Z,95838.03
2023-04-24T17:50:14.315Z,95830.22
2023-04-24T17:52:42.454Z,95840.66
2023-04-24T17:55:11.119Z,95844.06
2023-04-24T17:57:39.408Z,95852.38
2023-04-24T18:00:10.578Z,95841.63
2023-04-24T18:02:38.955Z,95857.91
2023-04-24T18:05:07.551Z,95856.28
2023-04-24T18:07:36.141Z,95857.75
2023-04-24T18:10:04.254Z,95866.38
2023-04-24T18:12:32.523Z,95862.97
2023-04-24T18:15:13.233Z,95865.09
2023-04-24T18:17:43.922Z,95875.50
2023-04-24T18:20:12.955Z,95878.91
2023-04-24T18:22:41.917Z,95875.47
2023-04-24T18:25:11.339Z,95878.41
2023-04-24T18:27:40.595Z,95891.38
2023-04-24T18:30:14.155Z,95887.81
2023-04-24T18:32:43.892Z,95896.91
2023-04-24T18:35:12.148Z,95905.34
2023-04-24T18:37:40.685Z,95902.91
2023-04-24T18:40:10.385Z,95905.31
2023-04-24T18:42:38.628Z,95908.28
2023-04-24T18:45:07.901Z,95908.56
2023-04-24T18:47:36.824Z,95916.38
2023-04-24T18:50:07.499Z,95919.06
2023-04-24T18:52:35.737Z,95914.50
2023-04-24T18:55:06.703Z,95914.28
2023-04-24T18:57:35.399Z,95926.16
2023-04-24T19:00:04.607Z,95940.00
2023-04-24T19:02:35.023Z,95941.63
2023-04-24T19:05:03.492Z,95938.66
2023-04-24T19:07:34.306Z,95944.16
2023-04-24T19:10:02.916Z,95941.91
2023-04-24T19:12:31.156Z,95944.53
2023-04-24T19:15:00.230Z,95944.22
2023-04-24T19:17:28.363Z,95957.25
2023-04-24T19:19:56.718Z,95952.69
2023-04-24T19:22:25.720Z,95959.16
2023-04-24T19:24:55.237Z,95955.88
2023-04-24T19:27:23.306Z,95965.22
2023-04-24T19:29:52.157Z,95954.00
2023-04-24T19:32:20.776Z,95968.97
2023-04-24T19:34:48.968Z,95986.22
2023-04-24T19:37:17.242Z,95978.88
2023-04-24T19:39:45.400Z,95979.16
2023-04-24T19:42:14.900Z,95979.16
2023-04-24T19:44:43.332Z,95987.03
2023-04-24T19:47:13.117Z,95980.16
2023-04-24T19:49:41.684Z,95982.28
2023-04-24T19:52:09.871Z,95987.34
2023-04-24T19:54:37.971Z,95980.41
2023-04-24T19:57:06.749Z,95982.56
2023-04-24T19:59:36.763Z,95977.34
2023-04-24T20:02:05.281Z,95985.22
2023-04-24T20:04:33.597Z,95986.75
2023-04-24T20:07:02.186Z,95992.53
2023-04-24T20:09:32.961Z,95990.34
2023-04-24T20:12:01.689Z,95998.44
2023-04-24T20:14:29.789Z,95997.78
2023-04-24T20:16:59.558Z,95995.31
2023-04-24T20:19:27.695Z,96005.72
2023-04-24T20:21:56.105Z,96002.72
2023-04-24T20:24:24.378Z,96003.69
2023-04-24T20:26:52.444Z,96003.72
2023-04-24T20:29:20.493Z,96005.38
2023-04-24T20:31:48.639Z,95999.44
2023-04-24T20:34:18.292Z,96003.25
2023-04-24T20:36:49.566Z,96007.03
2023-04-24T20:39:18.109Z,96012.78
2023-04-24T20:41:47.600Z,96009.22
2023-04-24T20:44:15.792Z,96008.25
2023-04-24T20:46:44.178Z,96013.59
2023-04-24T20:49:12.332Z,96008.94
2023-04-24T20:51:41.778Z,96013.44
2023-04-24T20:54:09.896Z,96009.22
2023-04-24T20:56:38.056Z,96018.25
2023-04-24T20:59:07.117Z,96014.59
2023-04-24T21:01:35.281Z,96015.69
2023-04-24T21:04:03.812Z,96016.97
2023-04-24T21:06:33.698Z,96016.88
2023-04-24T21:09:03.366Z,96013.19
2023-04-24T21:11:31.942Z,96016.38
2023-04-24T21:14:00.214Z,96011.50
2023-04-24T21:16:29.030Z,96013.53
2023-04-24T21:18:57.214Z,96015.88
2023-04-24T21:21:25.554Z,96018.59
2023-04-24T21:23:53.927Z,96021.22
2023-04-24T21:26:23.811Z,96019.31
2023-04-24T21:28:52.651Z,96023.81
2023-04-24T21:31:20.887Z,96026.16
2023-04-24T21:33:49.882Z,96026.66
2023-04-24T21:36:18.575Z,96021.78
2023-04-24T21:38:46.778Z,96018.22
2023-04-24T21:41:15.025Z,96022.59
2023-04-24T21:43:46.228Z,96011.56
2023-04-24T21:46:15.547Z,96011.41
2023-04-24T21:48:43.773Z,96015.38
2023-04-24T21:51:13.037Z,96017.16
2023-04-24T21:53:41.532Z,96020.81
2023-04-24T21:56:09.697Z,96018.91
2023-04-24T21:58:38.921Z,96013.31
2023-04-24T22:01:08.699Z,96021.09
2023-04-24T22:03:36.992Z,96024.38
2023-04-24T22:06:05.771Z,96018.63
2023-04-24T22:08:34.054Z,96020.69
2023-04-24T22:11:02.246Z,96015.78
2023-04-24T22:13:30.756Z,96020.53
2023-04-24T22:15:59.134Z,96017.13
2023-04-24T22:18:46.057Z,96016.31
2023-04-24T22:21:15.593Z,96019.00
2023-04-24T22:23:44.076Z,96017.22
2023-04-24T22:26:12.339Z,96019.69
2023-04-24T22:28:40.508Z,96018.72
2023-04-24T22:31:09.222Z,96014.75
2023-04-24T22:33:39.079Z,96016.38
2023-04-24T22:36:07.923Z,96013.09
2023-04-24T22:38:35.968Z,96018.53
2023-04-24T22:41:04.233Z,96011.78
2023-04-24T22:43:32.587Z,96011.78
2023-04-24T22:46:00.888Z,96012.44
2023-04-24T22:48:29.410Z,96013.78
2023-04-24T22:50:58.914Z,96019.19
2023-04-24T22:53:27.770Z,96020.28
2023-04-24T22:55:56.322Z,96013.56
2023-04-24T22:58:25.767Z,96017.47
2023-04-24T23:00:53.975Z,96021.81
2023-04-24T23:03:22.305Z,96019.31
2023-04-24T23:05:50.680Z,96023.47
2023-04-24T23:08:20.253Z,96020.03
2023-04-24T23:10:48.925Z,96019.72
2023-04-24T23:13:17.317Z,96017.66
2023-04-24T23:15:46.153Z,96021.19
2023-04-24T23:18:14.215Z,96018.09
2023-04-24T23:20:42.408Z,96031.28
2023-04-24T23:23:10.383Z,96016.59
2023-04-24T23:25:40.051Z,96030.06
2023-04-24T23:28:08.117Z,96026.34
2023-04-24T23:30:36.397Z,96023.88
2023-04-24T23:33:04.925Z,96025.06
2023-04-24T23:35:33.275Z,96021.25
2023-04-24T23:38:01.687Z,96021.34
2023-04-24T23:40:29.900Z,96022.66
2023-04-24T23:43:06.904Z,96022.06
2023-04-24T23:45:37.117Z,96014.56
2023-04-24T23:48:06.107Z,96013.09
2023-04-24T23:50:34.509Z,96015.00
2023-04-24T23:53:02.871Z,96008.88
2023-04-24T23:55:31.102Z,96009.25
2023-04-24T23:58:00.538Z,96007.88
